sensor_id;sensor_type;location;lat;lon;timestamp;pressure;altitude;pressure_sealevel;temperature;humidity
20889;BME280;10604;51.976;7.594;2024-02-15T00:02:01;100890.00;;;25.21;46.13
20889;BME280;10604;51.976;7.594;2024-02-15T00:04:26;100894.19;;;24.84;47.29
20889;BME280;10604;51.976;7.594;2024-02-15T00:06:51;100902.28;;;24.84;47.53
20889;BME280;10604;51.976;7.594;2024-02-15T00:09:17;100900.16;;;26.36;44.10
20889;BME280;10604;51.976;7.594;2024-02-15T00:11:42;100906.25;;;26.09;44.03
20889;BME280;10604;51.976;7.594;2024-02-15T00:14:07;100896.75;;;26.25;44.08
20889;BME280;10604;51.976;7.594;2024-02-15T00:16:33;100898.31;;;25.49;45.60
20889;BME280;10604;51.976;7.594;2024-02-15T00:18:59;100901.28;;;25.46;45.05
20889;BME280;10604;51.976;7.594;2024-02-15T00:21:24;100900.72;;;25.52;44.83
20889;BME280;10604;51.976;7.594;2024-02-15T00:23:50;100912.22;;;24.63;46.36
20889;BME280;10604;51.976;7.594;2024-02-15T00:26:15;100906.66;;;25.76;45.61
20889;BME280;10604;51.976;7.594;2024-02-15T00:28:43;100909.13;;;26.18;44.41
20889;BME280;10604;51.976;7.594;2024-02-15T00:31:08;100901.59;;;25.12;46.01
20889;BME280;10604;51.976;7.594;2024-02-15T00:33:33;100900.13;;;25.88;44.88
20889;BME280;10604;51.976;7.594;2024-02-15T00:36:00;100892.69;;;25.31;44.97
20889;BME280;10604;51.976;7.594;2024-02-15T00:38:26;100897.38;;;25.19;46.05
20889;BME280;10604;51.976;7.594;2024-02-15T00:40:52;100909.53;;;24.63;47.37
20889;BME280;10604;51.976;7.594;2024-02-15T00:43:18;100907.13;;;25.41;46.18
20889;BME280;10604;51.976;7.594;2024-02-15T00:45:43;100906.09;;;25.82;45.24
20889;BME280;10604;51.976;7.594;2024-02-15T00:48:08;100901.31;;;24.64;46.31
20889;BME280;10604;51.976;7.594;2024-02-15T00:50:35;100909.94;;;25.40;45.44
20889;BME280;10604;51.976;7.594;2024-02-15T00:53:00;100907.13;;;25.41;45.62
20889;BME280;10604;51.976;7.594;2024-02-15T00:55:25;100902.44;;;25.93;44.32
20889;BME280;10604;51.976;7.594;2024-02-15T00:57:50;100901.25;;;25.76;45.26
20889;BME280;10604;51.976;7.594;2024-02-15T01:00:15;100910.44;;;25.14;45.99
20889;BME280;10604;51.976;7.594;2024-02-15T01:02:41;100908.59;;;26.43;44.10
20889;BME280;10604;51.976;7.594;2024-02-15T01:05:06;100899.31;;;25.48;45.50
20889;BME280;10604;51.976;7.594;2024-02-15T01:07:31;100899.88;;;26.10;44.37
20889;BME280;10604;51.976;7.594;2024-02-15T01:09:57;100898.66;;;25.65;44.37
20889;BME280;10604;51.976;7.594;2024-02-15T01:12:22;100912.41;;;26.21;43.81
20889;BME280;10604;51.976;7.594;2024-02-15T01:14:47;100916.88;;;25.32;45.55
20889;BME280;10604;51.976;7.594;2024-02-15T01:17:13;100907.81;;;25.83;44.70
20889;BME280;10604;51.976;7.594;2024-02-15T01:19:38;100920.06;;;25.07;45.44
20889;BME280;10604;51.976;7.594;2024-02-15T01:22:03;100916.88;;;25.02;46.14
20889;BME280;10604;51.976;7.594;2024-02-15T01:24:29;100916.34;;;25.08;45.90
20889;BME280;10604;51.976;7.594;2024-02-15T01:26:55;100907.25;;;25.89;44.76
20889;BME280;10604;51.976;7.594;2024-02-15T01:29:20;100920.22;;;25.15;46.42
20889;BME280;10604;51.976;7.594;2024-02-15T01:31:45;100909.03;;;25.29;45.55
20889;BME280;10604;51.976;7.594;2024-02-15T01:34:10;100903.00;;;25.96;44.41
20889;BME280;10604;51.976;7.594;2024-02-15T01:36:36;100913.22;;;26.02;44.17
20889;BME280;10604;51.976;7.594;2024-02-15T01:39:01;100915.44;;;25.59;45.40
20889;BME280;10604;51.976;7.594;2024-02-15T01:41:26;100909.19;;;25.68;45.63
20889;BME280;10604;51.976;7.594;2024-02-15T01:43:52;100913.44;;;25.61;45.72
20889;BME280;10604;51.976;7.594;2024-02-15T01:46:17;100912.94;;;25.77;44.68
20889;BME280;10604;51.976;7.594;2024-02-15T01:48:43;100916.13;;;26.49;43.97
20889;BME280;10604;51.976;7.594;2024-02-15T01:51:09;100915.59;;;25.67;45.42
20889;BME280;10604;51.976;7.594;2024-02-15T01:53:35;100916.81;;;25.93;44.35
20889;BME280;10604;51.976;7.594;2024-02-15T01:56:00;100914.78;;;25.76;44.55
20889;BME280;10604;51.976;7.594;2024-02-15T01:58:26;100913.94;;;25.85;44.30
20889;BME280;10604;51.976;7.594;2024-02-15T02:00:52;100914.13;;;26.32;43.78
20889;BME280;10604;51.976;7.594;2024-02-15T02:03:18;100907.50;;;25.36;45.70
20889;BME280;10604;51.976;7.594;2024-02-15T02:05:46;100911.06;;;25.67;45.41
20889;BME280;10604;51.976;7.594;2024-02-15T02:08:11;100911.00;;;26.46;43.83
20889;BME280;10604;51.976;7.594;2024-02-15T02:10:36;100901.00;;;25.98;44.79
20889;BME280;10604;51.976;7.594;2024-02-15T02:13:02;100907.72;;;24.31;47.81
20889;BME280;10604;51.976;7.594;2024-02-15T02:15:27;100900.59;;;26.12;44.32
20889;BME280;10604;51.976;7.594;2024-02-15T02:17:53;100900.00;;;26.19;44.15
20889;BME280;10604;51.976;7.594;2024-02-15T02:20:19;100893.25;;;26.80;42.82
20889;BME280;10604;51.976;7.594;2024-02-15T02:22:45;100895.34;;;26.40;43.61
20889;BME280;10604;51.976;7.594;2024-02-15T02:25:11;100893.81;;;25.59;44.91
20889;BME280;10604;51.976;7.594;2024-02-15T02:27:38;100889.03;;;26.10;44.49
20889;BME280;10604;51.976;7.594;2024-02-15T02:30:12;100889.03;;;25.91;44.55
20889;BME280;10604;51.976;7.594;2024-02-15T02:32:43;100889.50;;;24.86;45.57
20889;BME280;10604;51.976;7.594;2024-02-15T02:35:08;100882.75;;;25.81;45.20
20889;BME280;10604;51.976;7.594;2024-02-15T02:37:36;100886.22;;;26.22;43.56
20889;BME280;10604;51.976;7.594;2024-02-15T02:40:02;100889.03;;;26.10;43.52
20889;BME280;10604;51.976;7.594;2024-02-15T02:42:28;100889.31;;;25.88;44.52
20889;BME280;10604;51.976;7.594;2024-02-15T02:44:53;100892.16;;;25.96;43.73
20889;BME280;10604;51.976;7.594;2024-02-15T02:47:18;100889.63;;;26.14;43.89
20889;BME280;10604;51.976;7.594;2024-02-15T02:49:45;100892.22;;;26.25;43.63
20889;BME280;10604;51.976;7.594;2024-02-15T02:52:11;100891.63;;;26.41;43.26
20889;BME280;10604;51.976;7.594;2024-02-15T02:54:36;100888.16;;;25.01;45.42
20889;BME280;10604;51.976;7.594;2024-02-15T02:57:01;100891.78;;;25.51;45.66
20889;BME280;10604;51.976;7.594;2024-02-15T02:59:31;100883.63;;;25.82;45.08
20889;BME280;10604;51.976;7.594;2024-02-15T03:01:56;100882.47;;;25.94;44.38
20889;BME280;10604;51.976;7.594;2024-02-15T03:04:22;100879.09;;;26.40;43.36
20889;BME280;10604;51.976;7.594;2024-02-15T03:06:47;100875.25;;;25.45;44.76
20889;BME280;10604;51.976;7.594;2024-02-15T03:09:12;100875.81;;;26.46;43.62
20889;BME280;10604;51.976;7.594;2024-02-15T03:11:39;100879.94;;;26.50;43.28
20889;BME280;10604;51.976;7.594;2024-02-15T03:14:04;100879.78;;;26.03;43.55
20889;BME280;10604;51.976;7.594;2024-02-15T03:16:31;100871.97;;;26.39;43.51
20889;BME280;10604;51.976;7.594;2024-02-15T03:18:56;100877.09;;;26.03;44.09
20889;BME280;10604;51.976;7.594;2024-02-15T03:21:21;100881.34;;;25.77;43.95
20889;BME280;10604;51.976;7.594;2024-02-15T03:23:46;100883.22;;;26.05;44.38
20889;BME280;10604;51.976;7.594;2024-02-15T03:26:11;100875.66;;;26.57;42.99
20889;BME280;10604;51.976;7.594;2024-02-15T03:28:37;100867.88;;;25.47;44.81
20889;BME280;10604;51.976;7.594;2024-02-15T03:31:03;100864.81;;;25.80;44.88
20889;BME280;10604;51.976;7.594;2024-02-15T03:33:28;100873.38;;;26.24;43.40
20889;BME280;10604;51.976;7.594;2024-02-15T03:35:58;100874.72;;;26.85;42.59
20889;BME280;10604;51.976;7.594;2024-02-15T03:38:25;100873.41;;;26.43;43.50
20889;BME280;10604;51.976;7.594;2024-02-15T03:40:51;100877.38;;;25.71;44.41
20889;BME280;10604;51.976;7.594;2024-02-15T03:43:17;100879.38;;;25.98;44.55
20889;BME280;10604;51.976;7.594;2024-02-15T03:45:42;100873.38;;;25.95;43.62
20889;BME280;10604;51.976;7.594;2024-02-15T03:48:09;100879.53;;;27.01;42.50
20889;BME280;10604;51.976;7.594;2024-02-15T03:50:34;100876.53;;;26.48;43.32
20889;BME280;10604;51.976;7.594;2024-02-15T03:53:00;100871.97;;;26.39;42.69
20889;BME280;10604;51.976;7.594;2024-02-15T03:55:25;100871.97;;;26.39;43.05
20889;BME280;10604;51.976;7.594;2024-02-15T03:57:50;100872.13;;;26.28;43.29
20889;BME280;10604;51.976;7.594;2024-02-15T04:00:17;100871.97;;;26.00;44.02
20889;BME280;10604;51.976;7.594;2024-02-15T04:02:45;100866.16;;;26.34;43.32
20889;BME280;10604;51.976;7.594;2024-02-15T04:05:13;100873.31;;;26.81;42.87
20889;BME280;10604;51.976;7.594;2024-02-15T04:07:39;100869.13;;;26.31;43.21
20889;BME280;10604;51.976;7.594;2024-02-15T04:10:04;100872.97;;;26.57;43.22
20889;BME280;10604;51.976;7.594;2024-02-15T04:12:31;100878.53;;;26.27;43.09
20889;BME280;10604;51.976;7.594;2024-02-15T04:14:56;100877.06;;;26.23;43.39
20889;BME280;10604;51.976;7.594;2024-02-15T04:17:25;100878.19;;;26.68;42.43
20889;BME280;10604;51.976;7.594;2024-02-15T04:19:50;100883.34;;;26.52;43.01
20889;BME280;10604;51.976;7.594;2024-02-15T04:22:16;100873.69;;;26.40;43.08
20889;BME280;10604;51.976;7.594;2024-02-15T04:24:44;100880.50;;;26.63;42.51
20889;BME280;10604;51.976;7.594;2024-02-15T04:27:10;100876.19;;;26.70;41.99
20889;BME280;10604;51.976;7.594;2024-02-15T04:29:45;100878.59;;;26.73;42.28
20889;BME280;10604;51.976;7.594;2024-02-15T04:32:11;100874.75;;;26.66;42.46
20889;BME280;10604;51.976;7.594;2024-02-15T04:34:38;100868.94;;;26.71;42.35
20889;BME280;10604;51.976;7.594;2024-02-15T04:37:03;100870.25;;;26.57;42.71
20889;BME280;10604;51.976;7.594;2024-02-15T04:39:32;100873.38;;;26.24;42.97
20889;BME280;10604;51.976;7.594;2024-02-15T04:41:57;100873.94;;;26.56;42.39
20889;BME280;10604;51.976;7.594;2024-02-15T04:44:22;100874.84;;;26.94;41.59
20889;BME280;10604;51.976;7.594;2024-02-15T04:46:52;100872.47;;;26.91;42.16
20889;BME280;10604;51.976;7.594;2024-02-15T04:49:17;100859.97;;;26.61;42.18
20889;BME280;10604;51.976;7.594;2024-02-15T04:51:42;100852.91;;;26.87;41.65
20889;BME280;10604;51.976;7.594;2024-02-15T04:54:08;100857.47;;;26.86;41.68
20889;BME280;10604;51.976;7.594;2024-02-15T04:56:38;100858.78;;;26.82;41.92
20889;BME280;10604;51.976;7.594;2024-02-15T04:59:03;100857.19;;;27.26;41.12
20889;BME280;10604;51.976;7.594;2024-02-15T05:01:28;100858.53;;;27.13;40.83
20889;BME280;10604;51.976;7.594;2024-02-15T05:03:58;100857.53;;;27.14;41.31
20889;BME280;10604;51.976;7.594;2024-02-15T05:06:23;100855.91;;;26.94;41.46
20889;BME280;10604;51.976;7.594;2024-02-15T05:08:49;100864.78;;;26.67;42.03
20889;BME280;10604;51.976;7.594;2024-02-15T05:11:14;100850.03;;;26.88;41.72
20889;BME280;10604;51.976;7.594;2024-02-15T05:13:45;100845.63;;;26.87;41.60
20889;BME280;10604;51.976;7.594;2024-02-15T05:16:11;100852.03;;;26.40;42.26
20889;BME280;10604;51.976;7.594;2024-02-15T05:18:37;100846.34;;;26.43;42.52
20889;BME280;10604;51.976;7.594;2024-02-15T05:21:05;100842.94;;;26.31;42.83
20889;BME280;10604;51.976;7.594;2024-02-15T05:23:38;100845.03;;;26.47;42.07
20889;BME280;10604;51.976;7.594;2024-02-15T05:26:05;100842.38;;;26.28;42.76
20889;BME280;10604;51.976;7.594;2024-02-15T05:28:30;100842.94;;;26.22;42.22
20889;BME280;10604;51.976;7.594;2024-02-15T05:31:09;100841.94;;;26.42;42.34
20889;BME280;10604;51.976;7.594;2024-02-15T05:33:35;100836.28;;;26.72;41.89
20889;BME280;10604;51.976;7.594;2024-02-15T05:36:01;100833.16;;;26.77;41.53
20889;BME280;10604;51.976;7.594;2024-02-15T05:38:27;100835.53;;;26.43;42.11
20889;BME280;10604;51.976;7.594;2024-02-15T05:40:54;100832.63;;;26.54;42.08
20889;BME280;10604;51.976;7.594;2024-02-15T05:43:19;100830.94;;;26.43;41.95
20889;BME280;10604;51.976;7.594;2024-02-15T05:45:45;100823.94;;;26.60;41.63
20889;BME280;10604;51.976;7.594;2024-02-15T05:48:10;100816.25;;;26.56;41.92
20889;BME280;10604;51.976;7.594;2024-02-15T05:50:37;100814.41;;;26.56;42.06
20889;BME280;10604;51.976;7.594;2024-02-15T05:53:02;100814.16;;;26.40;42.19
20889;BME280;10604;51.976;7.594;2024-02-15T05:55:29;100818.44;;;26.33;42.26
20889;BME280;10604;51.976;7.594;2024-02-15T05:57:56;100827.09;;;26.36;42.12
20889;BME280;10604;51.976;7.594;2024-02-15T06:00:21;100826.97;;;26.38;41.81
20889;BME280;10604;51.976;7.594;2024-02-15T06:02:46;100831.09;;;26.42;42.03
20889;BME280;10604;51.976;7.594;2024-02-15T06:05:12;100827.28;;;26.35;41.76
20889;BME280;10604;51.976;7.594;2024-02-15T06:07:37;100826.69;;;26.41;41.66
20889;BME280;10604;51.976;7.594;2024-02-15T06:10:03;100826.97;;;26.19;42.02
20889;BME280;10604;51.976;7.594;2024-02-15T06:12:29;100824.41;;;26.46;41.94
20889;BME280;10604;51.976;7.594;2024-02-15T06:14:55;100824.97;;;26.40;41.81
20889;BME280;10604;51.976;7.594;2024-02-15T06:17:20;100829.69;;;26.38;41.64
20889;BME280;10604;51.976;7.594;2024-02-15T06:19:45;100827.88;;;26.29;41.51
20889;BME280;10604;51.976;7.594;2024-02-15T06:22:11;100823.56;;;26.17;41.71
20889;BME280;10604;51.976;7.594;2024-02-15T06:24:37;100821.16;;;26.13;41.99
20889;BME280;10604;51.976;7.594;2024-02-15T06:27:02;100824.28;;;26.09;42.49
20889;BME280;10604;51.976;7.594;2024-02-15T06:29:28;100817.00;;;26.09;42.24
20889;BME280;10604;51.976;7.594;2024-02-15T06:32:12;100819.59;;;25.92;42.57
20889;BME280;10604;51.976;7.594;2024-02-15T06:34:55;100812.19;;;26.03;42.24
20889;BME280;10604;51.976;7.594;2024-02-15T06:37:39;100818.44;;;26.13;42.10
20889;BME280;10604;51.976;7.594;2024-02-15T06:40:24;100818.03;;;26.28;41.57
20889;BME280;10604;51.976;7.594;2024-02-15T06:42:49;100818.72;;;26.10;42.09
20889;BME280;10604;51.976;7.594;2024-02-15T06:45:15;100811.91;;;26.26;41.84
20889;BME280;10604;51.976;7.594;2024-02-15T06:47:41;100827.00;;;26.28;41.60
20889;BME280;10604;51.976;7.594;2024-02-15T06:50:09;100820.75;;;25.70;43.29
20889;BME280;10604;51.976;7.594;2024-02-15T06:52:34;100822.03;;;25.85;42.61
20889;BME280;10604;51.976;7.594;2024-02-15T06:54:59;100822.56;;;25.79;42.43
20889;BME280;10604;51.976;7.594;2024-02-15T06:57:25;100824.28;;;25.61;42.92
20889;BME280;10604;51.976;7.594;2024-02-15T06:59:51;100831.53;;;25.89;43.03
20889;BME280;10604;51.976;7.594;2024-02-15T07:02:16;100818.16;;;25.97;42.82
20889;BME280;10604;51.976;7.594;2024-02-15T07:04:42;100828.28;;;25.86;42.54
20889;BME280;10604;51.976;7.594;2024-02-15T07:07:09;100834.34;;;25.59;43.01
20889;BME280;10604;51.976;7.594;2024-02-15T07:09:35;100821.16;;;25.85;42.90
20889;BME280;10604;51.976;7.594;2024-02-15T07:12:00;100831.56;;;26.28;42.62
20889;BME280;10604;51.976;7.594;2024-02-15T07:14:25;100831.28;;;25.92;42.58
20889;BME280;10604;51.976;7.594;2024-02-15T07:16:53;100830.97;;;25.76;42.97
20889;BME280;10604;51.976;7.594;2024-02-15T07:19:21;100830.38;;;24.83;44.73
20889;BME280;10604;51.976;7.594;2024-02-15T07:21:47;100831.03;;;25.46;43.87
20889;BME280;10604;51.976;7.594;2024-02-15T07:24:12;100824.44;;;24.89;44.96
20889;BME280;10604;51.976;7.594;2024-02-15T07:26:37;100818.31;;;25.77;43.31
20889;BME280;10604;51.976;7.594;2024-02-15T07:29:03;100818.66;;;25.33;43.64
20889;BME280;10604;51.976;7.594;2024-02-15T07:31:33;100808.78;;;25.82;43.40
20889;BME280;10604;51.976;7.594;2024-02-15T07:33:58;100812.03;;;25.57;43.79
20889;BME280;10604;51.976;7.594;2024-02-15T07:36:23;100807.22;;;25.70;43.73
20889;BME280;10604;51.976;7.594;2024-02-15T07:38:49;100807.78;;;25.83;43.26
20889;BME280;10604;51.976;7.594;2024-02-15T07:41:16;100795.38;;;25.42;43.79
20889;BME280;10604;51.976;7.594;2024-02-15T07:43:43;100785.31;;;25.04;45.04
20889;BME280;10604;51.976;7.594;2024-02-15T07:46:11;100788.34;;;25.20;44.18
20889;BME280;10604;51.976;7.594;2024-02-15T07:48:37;100783.59;;;24.93;44.93
20889;BME280;10604;51.976;7.594;2024-02-15T07:51:03;100774.00;;;25.20;44.55
20889;BME280;10604;51.976;7.594;2024-02-15T07:53:31;100761.84;;;25.93;43.26
20889;BME280;10604;51.976;7.594;2024-02-15T07:55:56;100760.97;;;25.92;43.22
20889;BME280;10604;51.976;7.594;2024-02-15T07:58:23;100749.31;;;25.63;44.28
20889;BME280;10604;51.976;7.594;2024-02-15T08:00:48;100756.44;;;25.64;43.97
20889;BME280;10604;51.976;7.594;2024-02-15T08:03:13;100765.63;;;25.52;44.38
20889;BME280;10604;51.976;7.594;2024-02-15T08:05:39;100776.16;;;24.86;45.58
20889;BME280;10604;51.976;7.594;2024-02-15T08:08:04;100797.28;;;25.11;45.15
20889;BME280;10604;51.976;7.594;2024-02-15T08:10:31;100794.16;;;25.16;45.33
20889;BME280;10604;51.976;7.594;2024-02-15T08:12:56;100808.41;;;25.27;44.96
20889;BME280;10604;51.976;7.594;2024-02-15T08:15:23;100810.22;;;24.87;44.95
20889;BME280;10604;51.976;7.594;2024-02-15T08:17:49;100823.28;;;24.82;45.97
20889;BME280;10604;51.976;7.594;2024-02-15T08:20:14;100816.97;;;24.21;46.26
20889;BME280;10604;51.976;7.594;2024-02-15T08:22:40;100819.81;;;25.41;45.35
20889;BME280;10604;51.976;7.594;2024-02-15T08:25:09;100825.38;;;25.49;44.54
20889;BME280;10604;51.976;7.594;2024-02-15T08:30:06;100816.13;;;25.42;44.88
20889;BME280;10604;51.976;7.594;2024-02-15T08:32:33;100807.28;;;25.40;44.91
20889;BME280;10604;51.976;7.594;2024-02-15T08:34:58;100808.16;;;25.40;44.67
20889;BME280;10604;51.976;7.594;2024-02-15T08:37:24;100801.66;;;25.81;43.94
20889;BME280;10604;51.976;7.594;2024-02-15T08:39:49;100793.97;;;26.05;43.47
20889;BME280;10604;51.976;7.594;2024-02-15T08:42:14;100793.13;;;26.05;43.73
20889;BME280;10604;51.976;7.594;2024-02-15T08:44:39;100792.50;;;26.40;42.71
20889;BME280;10604;51.976;7.594;2024-02-15T08:47:05;100791.84;;;25.80;43.40
20889;BME280;10604;51.976;7.594;2024-02-15T08:49:30;100780.31;;;25.59;43.83
20889;BME280;10604;51.976;7.594;2024-02-15T08:51:56;100780.97;;;25.51;44.22
20889;BME280;10604;51.976;7.594;2024-02-15T08:54:23;100771.63;;;24.66;45.32
20889;BME280;10604;51.976;7.594;2024-02-15T08:56:49;100773.75;;;25.42;44.89
20889;BME280;10604;51.976;7.594;2024-02-15T08:59:14;100778.38;;;25.11;45.51
20889;BME280;10604;51.976;7.594;2024-02-15T09:01:40;100782.19;;;25.09;45.45
20889;BME280;10604;51.976;7.594;2024-02-15T09:04:08;100794.44;;;24.82;45.63
20889;BME280;10604;51.976;7.594;2024-02-15T09:06:33;100795.34;;;25.32;44.53
20889;BME280;10604;51.976;7.594;2024-02-15T09:08:58;100800.44;;;24.55;46.46
20889;BME280;10604;51.976;7.594;2024-02-15T09:11:27;100797.31;;;25.30;45.37
20889;BME280;10604;51.976;7.594;2024-02-15T09:13:53;100799.34;;;24.68;46.19
20889;BME280;10604;51.976;7.594;2024-02-15T09:16:20;100800.78;;;25.02;45.93
20889;BME280;10604;51.976;7.594;2024-02-15T09:18:46;100797.91;;;25.53;45.44
20889;BME280;10604;51.976;7.594;2024-02-15T09:21:12;100804.97;;;25.25;44.90
20889;BME280;10604;51.976;7.594;2024-02-15T09:23:37;100807.53;;;25.17;45.90
20889;BME280;10604;51.976;7.594;2024-02-15T09:26:03;100805.19;;;24.93;46.12
20889;BME280;10604;51.976;7.594;2024-02-15T09:28:29;100812.25;;;25.34;45.37
20889;BME280;10604;51.976;7.594;2024-02-15T09:30:56;100812.44;;;25.43;45.54
20889;BME280;10604;51.976;7.594;2024-02-15T09:33:24;100814.94;;;25.25;45.44
20889;BME280;10604;51.976;7.594;2024-02-15T09:35:51;100804.81;;;25.77;44.64
20889;BME280;10604;51.976;7.594;2024-02-15T09:38:16;100811.81;;;25.29;44.82
20889;BME280;10604;51.976;7.594;2024-02-15T09:40:42;100817.47;;;26.05;43.77
20889;BME280;10604;51.976;7.594;2024-02-15T09:43:08;100814.16;;;26.49;43.19
20889;BME280;10604;51.976;7.594;2024-02-15T09:45:34;100826.72;;;25.83;44.06
20889;BME280;10604;51.976;7.594;2024-02-15T09:48:00;100819.50;;;25.34;44.92
20889;BME280;10604;51.976;7.594;2024-02-15T09:50:29;100822.56;;;25.10;45.42
20889;BME280;10604;51.976;7.594;2024-02-15T09:52:58;100827.00;;;25.99;44.04
20889;BME280;10604;51.976;7.594;2024-02-15T09:55:24;100832.81;;;26.04;43.46
20889;BME280;10604;51.976;7.594;2024-02-15T09:57:49;100821.84;;;25.58;44.76
20889;BME280;10604;51.976;7.594;2024-02-15T10:00:15;100816.16;;;26.19;43.31
20889;BME280;10604;51.976;7.594;2024-02-15T10:02:42;100825.28;;;25.98;43.91
20889;BME280;10604;51.976;7.594;2024-02-15T10:05:10;100819.38;;;25.35;44.96
20889;BME280;10604;51.976;7.594;2024-02-15T10:07:39;100821.63;;;25.30;45.96
20889;BME280;10604;51.976;7.594;2024-02-15T10:10:20;100838.94;;;25.78;44.88
20889;BME280;10604;51.976;7.594;2024-02-15T10:12:46;100838.81;;;25.29;46.13
20889;BME280;10604;51.976;7.594;2024-02-15T10:17:58;100842.06;;;26.31;44.28
20889;BME280;10604;51.976;7.594;2024-02-15T10:20:26;100850.00;;;24.85;46.69
20889;BME280;10604;51.976;7.594;2024-02-15T10:25:28;100851.63;;;26.06;44.72
20889;BME280;10604;51.976;7.594;2024-02-15T10:28:07;100854.00;;;25.80;44.94
20889;BME280;10604;51.976;7.594;2024-02-15T10:30:37;100842.06;;;26.11;43.90
20889;BME280;10604;51.976;7.594;2024-02-15T10:33:03;100842.06;;;26.50;43.87
20889;BME280;10604;51.976;7.594;2024-02-15T10:35:28;100837.19;;;26.63;43.23
20889;BME280;10604;51.976;7.594;2024-02-15T10:38:07;100832.56;;;26.73;43.13
20889;BME280;10604;51.976;7.594;2024-02-15T10:40:38;100836.34;;;26.43;43.76
20889;BME280;10604;51.976;7.594;2024-02-15T10:43:06;100831.38;;;26.48;43.85
20889;BME280;10604;51.976;7.594;2024-02-15T10:45:32;100831.84;;;26.25;43.88
20889;BME280;10604;51.976;7.594;2024-02-15T10:47:58;100826.69;;;26.02;44.45
20889;BME280;10604;51.976;7.594;2024-02-15T10:50:24;100823.56;;;26.82;43.29
20889;BME280;10604;51.976;7.594;2024-02-15T10:52:56;100828.44;;;27.16;42.87
20889;BME280;10604;51.976;7.594;2024-02-15T10:55:45;100831.19;;;27.34;42.50
20889;BME280;10604;51.976;7.594;2024-02-15T10:58:07;100824.78;;;27.35;42.00
20889;BME280;10604;51.976;7.594;2024-02-15T11:00:32;100829.34;;;27.34;42.43
20889;BME280;10604;51.976;7.594;2024-02-15T11:03:01;100819.97;;;27.46;42.34
20889;BME280;10604;51.976;7.594;2024-02-15T11:05:29;100827.53;;;27.25;42.32
20889;BME280;10604;51.976;7.594;2024-02-15T11:07:56;100812.97;;;27.26;42.44
20889;BME280;10604;51.976;7.594;2024-02-15T11:10:22;100809.47;;;27.79;41.79
20889;BME280;10604;51.976;7.594;2024-02-15T11:12:47;100798.19;;;27.65;41.90
20889;BME280;10604;51.976;7.594;2024-02-15T11:15:25;100799.59;;;27.70;41.67
20889;BME280;10604;51.976;7.594;2024-02-15T11:17:58;100798.91;;;27.40;41.71
20889;BME280;10604;51.976;7.594;2024-02-15T11:21:09;100795.47;;;27.83;41.61
20889;BME280;10604;51.976;7.594;2024-02-15T11:23:09;100792.44;;;27.23;42.28
20889;BME280;10604;51.976;7.594;2024-02-15T11:25:38;100782.38;;;27.79;41.81
20889;BME280;10604;51.976;7.594;2024-02-15T11:30:54;100756.56;;;27.39;42.02
20889;BME280;10604;51.976;7.594;2024-02-15T11:33:29;100747.38;;;27.67;41.77
20889;BME280;10604;51.976;7.594;2024-02-15T11:38:36;100740.72;;;27.62;41.79
20889;BME280;10604;51.976;7.594;2024-02-15T11:41:05;100740.41;;;27.02;42.91
20889;BME280;10604;51.976;7.594;2024-02-15T11:46:08;100738.66;;;27.46;42.23
20889;BME280;10604;51.976;7.594;2024-02-15T11:48:36;100732.19;;;27.75;41.94
20889;BME280;10604;51.976;7.594;2024-02-15T11:51:04;100727.78;;;28.17;41.65
20889;BME280;10604;51.976;7.594;2024-02-15T11:53:31;100726.03;;;27.90;42.21
20889;BME280;10604;51.976;7.594;2024-02-15T11:55:59;100727.63;;;28.53;41.33
20889;BME280;10604;51.976;7.594;2024-02-15T11:58:25;100726.88;;;27.91;42.13
20889;BME280;10604;51.976;7.594;2024-02-15T12:00:59;100716.13;;;28.59;41.22
20889;BME280;10604;51.976;7.594;2024-02-15T12:03:43;100725.63;;;28.55;41.14
20889;BME280;10604;51.976;7.594;2024-02-15T12:06:27;100728.03;;;28.66;40.76
20889;BME280;10604;51.976;7.594;2024-02-15T12:09:11;100720.59;;;27.90;41.67
20889;BME280;10604;51.976;7.594;2024-02-15T12:11:58;100723.88;;;28.46;41.08
20889;BME280;10604;51.976;7.594;2024-02-15T12:14:42;100721.47;;;28.42;41.00
20889;BME280;10604;51.976;7.594;2024-02-15T12:17:26;100720.91;;;28.65;41.05
20889;BME280;10604;51.976;7.594;2024-02-15T12:20:10;100698.63;;;28.19;41.74
20889;BME280;10604;51.976;7.594;2024-02-15T12:22:40;100707.06;;;28.76;41.33
20889;BME280;10604;51.976;7.594;2024-02-15T12:25:07;100702.44;;;29.18;40.93
20889;BME280;10604;51.976;7.594;2024-02-15T12:27:39;100694.19;;;29.69;39.86
20889;BME280;10604;51.976;7.594;2024-02-15T12:30:05;100693.59;;;29.16;40.48
20889;BME280;10604;51.976;7.594;2024-02-15T12:32:31;100689.91;;;29.74;39.59
20889;BME280;10604;51.976;7.594;2024-02-15T12:35:09;100685.00;;;28.79;40.96
20889;BME280;10604;51.976;7.594;2024-02-15T12:37:41;100680.28;;;28.21;41.62
20889;BME280;10604;51.976;7.594;2024-02-15T12:40:13;100676.56;;;28.90;40.88
20889;BME280;10604;51.976;7.594;2024-02-15T12:42:44;100673.84;;;28.90;40.52
20889;BME280;10604;51.976;7.594;2024-02-15T12:47:45;100673.56;;;29.17;40.24
20889;BME280;10604;51.976;7.594;2024-02-15T12:50:14;100671.88;;;29.65;39.78
20889;BME280;10604;51.976;7.594;2024-02-15T12:52:40;100666.28;;;29.42;40.19
20889;BME280;10604;51.976;7.594;2024-02-15T12:55:15;100670.47;;;28.96;40.33
20889;BME280;10604;51.976;7.594;2024-02-15T12:57:42;100663.25;;;29.53;39.90
20889;BME280;10604;51.976;7.594;2024-02-15T13:00:11;100663.34;;;29.11;39.54
20889;BME280;10604;51.976;7.594;2024-02-15T13:02:38;100666.81;;;29.46;39.31
20889;BME280;10604;51.976;7.594;2024-02-15T13:05:04;100665.78;;;29.39;39.46
20889;BME280;10604;51.976;7.594;2024-02-15T13:07:30;100660.63;;;29.84;38.69
20889;BME280;10604;51.976;7.594;2024-02-15T13:09:55;100668.41;;;30.20;38.23